createdAt,value
2018-04-12T00:00:08.804Z,11.77
2018-04-12T00:02:36.409Z,11.82
2018-04-12T00:05:03.951Z,11.25
2018-04-12T00:07:32.216Z,11.15
2018-04-12T00:10:00.507Z,11.40
2018-04-12T00:12:28.079Z,11.82
2018-04-12T00:14:55.849Z,11.10
2018-04-12T00:17:23.361Z,10.00
2018-04-12T00:19:50.860Z,9.57
2018-04-12T00:22:18.406Z,10.75
2018-04-12T00:24:46.676Z,9.48
2018-04-12T00:27:15.047Z,10.38
2018-04-12T00:29:42.537Z,10.35
2018-04-12T00:32:10.043Z,10.85
2018-04-12T00:34:37.640Z,10.27
2018-04-12T00:37:05.954Z,11.88
2018-04-12T00:39:33.567Z,12.10
2018-04-12T00:42:01.853Z,10.88
2018-04-12T00:44:30.133Z,12.07
2018-04-12T00:46:58.396Z,13.25
2018-04-12T00:49:26.709Z,11.98
2018-04-12T00:51:54.966Z,12.73
2018-04-12T00:54:22.461Z,13.05
2018-04-12T00:56:50.118Z,13.23
2018-04-12T00:59:18.352Z,13.50
2018-04-12T01:01:46.618Z,9.63
2018-04-12T01:04:14.944Z,12.20
2018-04-12T01:06:42.436Z,11.32
2018-04-12T01:09:10.018Z,11.30
2018-04-12T01:11:38.281Z,11.07
2018-04-12T01:14:05.793Z,13.70
2018-04-12T01:16:33.320Z,12.88
2018-04-12T01:19:01.619Z,12.85
2018-04-12T01:21:29.113Z,10.30
2018-04-12T01:23:56.709Z,12.37
2018-04-12T01:26:24.236Z,14.35
2018-04-12T01:28:51.767Z,11.50
2018-04-12T01:31:19.292Z,13.27
2018-04-12T01:33:47.571Z,12.45
2018-04-12T01:36:15.846Z,10.32
2018-04-12T01:38:44.117Z,12.07
2018-04-12T01:41:12.403Z,11.10
2018-04-12T01:43:40.778Z,11.95
2018-04-12T01:46:09.050Z,11.43
2018-04-12T01:48:37.425Z,9.38
2018-04-12T01:51:05.689Z,9.15
2018-04-12T01:53:33.224Z,9.18
2018-04-12T01:56:01.524Z,10.05
2018-04-12T01:58:29.048Z,11.05
2018-04-12T02:00:56.557Z,10.32
2018-04-12T02:03:24.849Z,10.85
2018-04-12T02:05:52.352Z,10.90
2018-04-12T02:08:19.853Z,9.43
2018-04-12T02:10:48.123Z,11.63
2018-04-12T02:13:16.404Z,9.13
2018-04-12T02:15:44.683Z,10.27
2018-04-12T02:18:12.964Z,10.35
2018-04-12T02:20:40.614Z,8.88
2018-04-12T02:23:08.864Z,8.80
2018-04-12T02:25:36.388Z,10.60
2018-04-12T02:28:03.884Z,10.77
2018-04-12T02:30:31.408Z,8.48
2018-04-12T02:32:58.905Z,8.40
2018-04-12T02:35:26.408Z,9.02
2018-04-12T02:37:53.880Z,8.73
2018-04-12T02:40:21.360Z,7.68
2018-04-12T02:42:48.863Z,7.12
2018-04-12T02:45:17.150Z,9.30
2018-04-12T02:47:45.516Z,8.70
2018-04-12T02:50:13.776Z,7.90
2018-04-12T02:52:41.259Z,9.60
2018-04-12T02:55:08.799Z,8.73
2018-04-12T02:57:36.298Z,8.65
2018-04-12T03:00:03.811Z,8.10
2018-04-12T03:02:32.116Z,9.30
2018-04-12T03:04:59.611Z,9.85
2018-04-12T03:07:27.086Z,10.57
2018-04-12T03:09:54.667Z,10.30
2018-04-12T03:12:22.950Z,10.82
2018-04-12T03:14:51.231Z,9.27
2018-04-12T03:17:19.477Z,10.30
2018-04-12T03:19:47.365Z,14.30
2018-04-12T03:22:15.617Z,11.10
2018-04-12T03:24:43.122Z,10.90
2018-04-12T03:27:10.662Z,10.18
2018-04-12T03:29:38.911Z,12.93
2018-04-12T03:32:06.704Z,10.32
2018-04-12T03:34:34.944Z,9.70
2018-04-12T03:37:02.541Z,10.60
2018-04-12T03:39:30.818Z,10.40
2018-04-12T03:41:59.095Z,9.70
2018-04-12T03:44:27.365Z,9.88
2018-04-12T03:46:55.677Z,8.23
2018-04-12T03:49:23.167Z,10.00
2018-04-12T03:51:50.657Z,8.98
2018-04-12T03:54:18.916Z,8.35
2018-04-12T03:56:46.460Z,8.73
2018-04-12T03:59:13.951Z,8.05
2018-04-12T04:01:42.250Z,9.25
2018-04-12T04:04:10.497Z,9.50
2018-04-12T04:06:38.882Z,8.27
2018-04-12T04:09:07.159Z,8.90
2018-04-12T04:11:35.408Z,9.15
2018-04-12T04:14:02.895Z,9.50
2018-04-12T04:16:43.040Z,10.50
2018-04-12T04:19:23.306Z,9.32
2018-04-12T04:21:51.698Z,11.35
2018-04-12T04:24:19.199Z,10.25
2018-04-12T04:26:46.803Z,10.85
2018-04-12T04:29:15.090Z,8.88
2018-04-12T04:31:42.573Z,9.02
2018-04-12T04:34:10.105Z,9.48
2018-04-12T04:36:38.585Z,10.10
2018-04-12T04:39:06.957Z,11.50
2018-04-12T04:41:35.268Z,11.02
2018-04-12T04:44:02.760Z,11.48
2018-04-12T04:46:30.281Z,11.70
2018-04-12T04:48:57.804Z,9.50
2018-04-12T04:51:26.081Z,10.80
2018-04-12T04:53:54.363Z,9.10
2018-04-12T04:56:22.608Z,9.57
2018-04-12T04:58:50.500Z,10.57
2018-04-12T05:01:18.744Z,9.30
2018-04-12T05:03:46.657Z,9.60
2018-04-12T05:06:14.157Z,8.88
2018-04-12T05:08:41.630Z,9.77
2018-04-12T05:11:09.119Z,9.52
2018-04-12T05:13:37.372Z,10.43
2018-04-12T05:16:04.874Z,9.48
2018-04-12T05:18:32.356Z,12.23
2018-04-12T05:21:00.276Z,12.10
2018-04-12T05:23:28.528Z,10.35
2018-04-12T05:25:56.011Z,8.23
2018-04-12T05:28:24.323Z,9.95
2018-04-12T05:30:51.842Z,10.02
2018-04-12T05:33:20.117Z,10.27
2018-04-12T05:35:48.396Z,9.95
2018-04-12T05:38:16.788Z,8.90
2018-04-12T05:40:45.101Z,9.65
2018-04-12T05:43:12.719Z,8.82
2018-04-12T05:45:41.003Z,14.70
2018-04-12T05:48:09.261Z,10.27
2018-04-12T05:50:37.538Z,10.15
2018-04-12T05:53:06.093Z,11.12
2018-04-12T05:55:33.581Z,9.93
2018-04-12T05:58:01.864Z,13.57
2018-04-12T06:00:30.148Z,12.75
2018-04-12T06:02:58.211Z,12.13
2018-04-12T06:05:26.504Z,10.50
2018-04-12T06:07:54.012Z,11.35
2018-04-12T06:10:21.543Z,9.60
2018-04-12T06:12:49.037Z,9.52
2018-04-12T06:15:16.621Z,9.50
2018-04-12T06:17:44.907Z,10.40
2018-04-12T06:20:13.208Z,12.77
2018-04-12T06:22:40.688Z,10.85
2018-04-12T06:25:08.200Z,10.45
2018-04-12T06:27:35.708Z,11.70
2018-04-12T06:30:03.620Z,11.43
2018-04-12T06:32:31.937Z,11.32
2018-04-12T06:34:59.434Z,12.27
2018-04-12T06:37:26.953Z,12.52
2018-04-12T06:39:54.550Z,12.73
2018-04-12T06:42:22.116Z,13.45
2018-04-12T06:44:49.632Z,12.88
2018-04-12T06:47:17.190Z,13.98
2018-04-12T06:49:44.678Z,15.50
2018-04-12T06:52:12.221Z,15.40
2018-04-12T06:54:39.786Z,15.18
2018-04-12T06:57:07.375Z,17.25
2018-04-12T06:59:35.673Z,16.20
2018-04-12T07:02:03.162Z,16.37
2018-04-12T07:04:30.676Z,15.93
2018-04-12T07:06:58.235Z,15.85
2018-04-12T07:09:26.489Z,17.20
2018-04-12T07:11:54.062Z,18.35
2018-04-12T07:14:22.322Z,17.35
2018-04-12T07:16:49.840Z,16.95
2018-04-12T07:19:17.339Z,16.95
2018-04-12T07:21:44.811Z,15.88
2018-04-12T07:24:13.095Z,17.92
2018-04-12T07:26:41.368Z,18.08
2018-04-12T07:29:09.649Z,16.35
2018-04-12T07:31:37.921Z,17.12
2018-04-12T07:34:06.239Z,18.15
2018-04-12T07:36:33.716Z,16.58
2018-04-12T07:39:01.224Z,17.02
2018-04-12T07:41:29.692Z,17.80
2018-04-12T07:43:57.944Z,16.50
2018-04-12T07:46:25.437Z,19.45
2018-04-12T07:48:53.809Z,22.42
2018-04-12T07:51:22.090Z,20.30
2018-04-12T07:53:50.404Z,19.27
2018-04-12T07:56:17.916Z,19.58
2018-04-12T07:58:46.186Z,21.50
2018-04-12T08:01:13.792Z,20.77
2018-04-12T08:03:41.333Z,20.23
2018-04-12T08:06:09.701Z,18.62
2018-04-12T08:08:37.976Z,18.87
2018-04-12T08:11:06.357Z,22.60
2018-04-12T08:13:34.610Z,20.70
2018-04-12T08:16:02.144Z,20.30
2018-04-12T08:18:29.645Z,24.87
2018-04-12T08:20:58.019Z,22.62
2018-04-12T08:23:26.288Z,26.55
2018-04-12T08:25:54.669Z,27.13
2018-04-12T08:28:22.924Z,26.17
2018-04-12T08:30:50.445Z,25.05
2018-04-12T08:33:17.966Z,27.10
2018-04-12T08:35:46.238Z,27.92
2018-04-12T08:38:14.540Z,28.80
2018-04-12T08:40:42.042Z,29.37
2018-04-12T08:43:09.652Z,28.87
2018-04-12T08:45:37.891Z,27.43
2018-04-12T08:48:05.444Z,30.67
2018-04-12T08:50:33.038Z,30.67
2018-04-12T08:53:01.329Z,32.20
2018-04-12T08:55:28.824Z,33.30
2018-04-12T08:57:56.326Z,34.10
2018-04-12T09:00:24.603Z,36.90
2018-04-12T09:02:52.875Z,37.67
2018-04-12T09:05:20.451Z,39.83
2018-04-12T09:07:48.724Z,38.87
2018-04-12T09:10:16.980Z,40.80
2018-04-12T09:12:44.589Z,43.20
2018-04-12T09:15:12.078Z,42.63
2018-04-12T09:17:39.677Z,41.00
2018-04-12T09:20:07.934Z,40.07
2018-04-12T09:22:35.521Z,39.70
2018-04-12T09:25:03.756Z,42.50
2018-04-12T09:27:32.110Z,41.50
2018-04-12T09:29:59.606Z,43.77
2018-04-12T09:32:27.929Z,41.60
2018-04-12T09:34:55.443Z,41.80
2018-04-12T09:37:23.843Z,42.47
2018-04-12T09:39:52.112Z,41.40
2018-04-12T09:42:20.373Z,40.90
2018-04-12T09:44:47.940Z,43.07
2018-04-12T09:47:16.196Z,43.53
2018-04-12T09:49:45.316Z,41.17
2018-04-12T09:52:13.606Z,39.80
2018-04-12T09:54:41.109Z,37.87
2018-04-12T09:57:08.708Z,39.37
2018-04-12T09:59:36.991Z,38.67
2018-04-12T10:02:05.279Z,40.00
2018-04-12T10:04:33.229Z,37.77
2018-04-12T10:07:05.504Z,38.50
2018-04-12T10:09:33.882Z,37.80
2018-04-12T10:12:02.139Z,40.00
2018-04-12T10:14:29.646Z,37.57
2018-04-12T10:16:57.236Z,38.97
2018-04-12T10:19:24.768Z,41.73
2018-04-12T10:21:52.290Z,41.23
2018-04-12T10:24:19.766Z,40.50
2018-04-12T10:26:47.298Z,38.33
2018-04-12T10:29:14.779Z,38.43
2018-04-12T10:31:42.292Z,39.00
2018-04-12T10:34:09.788Z,39.23
2018-04-12T10:36:38.130Z,42.87
2018-04-12T10:39:05.643Z,44.77
2018-04-12T10:41:33.186Z,59.50
2018-04-12T10:44:01.465Z,39.83
2018-04-12T10:46:28.970Z,43.10
2018-04-12T10:48:56.519Z,37.47
2018-04-12T10:51:24.027Z,41.57
2018-04-12T10:53:52.286Z,39.67
2018-04-12T10:56:19.819Z,39.53
2018-04-12T10:58:47.327Z,39.53
2018-04-12T11:01:15.601Z,36.50
2018-04-12T11:03:43.845Z,39.83
2018-04-12T11:06:12.968Z,38.80
2018-04-12T11:08:41.226Z,37.10
2018-04-12T11:11:08.755Z,36.53
2018-04-12T11:13:36.293Z,37.30
2018-04-12T11:16:03.929Z,38.90
2018-04-12T11:18:32.323Z,36.50
2018-04-12T11:21:00.581Z,39.70
2018-04-12T11:23:28.069Z,38.43
2018-04-12T11:25:55.598Z,38.90
2018-04-12T11:28:23.169Z,36.50
2018-04-12T11:30:50.660Z,38.53
2018-04-12T11:33:18.177Z,39.17
2018-04-12T11:35:46.443Z,38.87
2018-04-12T11:38:14.011Z,37.33
2018-04-12T11:40:42.338Z,35.80
2018-04-12T11:43:09.788Z,40.53
2018-04-12T11:45:37.317Z,37.23
2018-04-12T11:48:04.821Z,38.30
2018-04-12T11:50:32.324Z,38.93
2018-04-12T11:52:59.879Z,39.67
2018-04-12T11:55:28.483Z,41.90
2018-04-12T11:57:56.781Z,37.63
2018-04-12T12:00:24.302Z,37.20
2018-04-12T12:02:51.887Z,37.10
2018-04-12T12:05:19.444Z,36.83
2018-04-12T12:07:46.936Z,36.67
2018-04-12T12:10:14.460Z,36.60
2018-04-12T12:12:42.149Z,38.10
2018-04-12T12:15:09.644Z,35.57
2018-04-12T12:17:38.000Z,37.70
2018-04-12T12:20:05.581Z,38.97
2018-04-12T12:22:33.858Z,38.43
2018-04-12T12:25:02.178Z,38.60
2018-04-12T12:27:29.839Z,38.70
2018-04-12T12:29:57.369Z,39.47
2018-04-12T12:32:25.646Z,35.67
2018-04-12T12:34:53.278Z,36.40
2018-04-12T12:37:21.540Z,35.73
2018-04-12T12:39:49.080Z,35.90
2018-04-12T12:42:16.694Z,35.00
2018-04-12T12:44:44.948Z,35.00
2018-04-12T12:47:13.239Z,31.90
2018-04-12T12:49:40.733Z,33.93
2018-04-12T12:52:08.313Z,38.87
2018-04-12T12:54:35.825Z,39.67
2018-04-12T12:57:04.131Z,40.70
2018-04-12T12:59:31.675Z,39.10
2018-04-12T13:01:59.939Z,39.87
2018-04-12T13:04:28.201Z,37.83
2018-04-12T13:06:56.482Z,38.10
2018-04-12T13:09:24.012Z,38.83
2018-04-12T13:11:51.604Z,39.53
2018-04-12T13:14:19.900Z,39.53
2018-04-12T13:16:47.400Z,36.20
2018-04-12T13:19:14.912Z,38.70
2018-04-12T13:21:43.164Z,35.67
2018-04-12T13:24:10.683Z,38.67
2018-04-12T13:26:38.181Z,35.13
2018-04-12T13:29:05.784Z,37.10
2018-04-12T13:31:33.280Z,35.67
2018-04-12T13:34:01.108Z,36.50
2018-04-12T13:36:28.722Z,35.50
2018-04-12T13:38:57.043Z,35.40
2018-04-12T13:41:24.517Z,34.97
2018-04-12T13:43:52.060Z,36.40
2018-04-12T13:46:29.567Z,34.60
2018-04-12T13:48:57.086Z,33.83
2018-04-12T13:51:25.340Z,35.40
2018-04-12T13:53:53.613Z,33.13
2018-04-12T13:56:21.187Z,32.33
2018-04-12T13:58:49.448Z,33.50
2018-04-12T14:01:17.036Z,36.17
2018-04-12T14:03:44.598Z,29.40
2018-04-12T14:06:12.108Z,24.33
2018-04-12T14:08:39.698Z,26.77
2018-04-12T14:11:07.962Z,27.20
2018-04-12T14:13:35.547Z,28.60
2018-04-12T14:16:03.821Z,24.47
2018-04-12T14:18:32.224Z,24.63
2018-04-12T14:20:59.737Z,22.03
2018-04-12T14:23:27.328Z,24.47
2018-04-12T14:25:55.314Z,25.77
2018-04-12T14:28:22.813Z,25.13
2018-04-12T14:30:51.100Z,24.63
2018-04-12T14:33:18.608Z,23.30
2018-04-12T14:35:46.257Z,22.57
2018-04-12T14:38:14.540Z,20.70
2018-04-12T14:40:42.101Z,21.90
2018-04-12T14:43:09.616Z,21.13
2018-04-12T14:45:37.180Z,20.40
2018-04-12T14:48:05.469Z,21.40
2018-04-12T14:50:33.785Z,21.00
2018-04-12T14:53:01.281Z,19.23
2018-04-12T14:55:28.772Z,19.80
2018-04-12T14:57:56.282Z,21.20
2018-04-12T15:00:23.859Z,19.90
2018-04-12T15:02:52.065Z,19.90
2018-04-12T15:05:19.609Z,19.40
2018-04-12T15:07:48.947Z,20.30
2018-04-12T15:10:16.484Z,18.63
2018-04-12T15:12:44.130Z,17.30
2018-04-12T15:15:12.397Z,17.30
2018-04-12T15:17:40.693Z,16.33
2018-04-12T15:20:08.963Z,17.50
2018-04-12T15:22:37.244Z,16.07
2018-04-12T15:25:04.777Z,16.27
2018-04-12T15:27:32.296Z,15.47
2018-04-12T15:29:59.884Z,15.83
2018-04-12T15:32:28.947Z,16.07
2018-04-12T15:34:57.194Z,17.23
2018-04-12T15:37:24.697Z,14.27
2018-04-12T15:39:52.241Z,14.23
2018-04-12T15:42:20.158Z,14.73
2018-04-12T15:44:48.465Z,14.27
2018-04-12T15:47:16.017Z,13.77
2018-04-12T15:49:43.632Z,15.13
2018-04-12T15:52:11.128Z,13.70
2018-04-12T15:54:39.435Z,13.03
2018-04-12T15:57:06.957Z,14.57
2018-04-12T15:59:35.221Z,14.00
2018-04-12T16:02:03.048Z,13.40
2018-04-12T16:04:30.537Z,12.80
2018-04-12T16:06:59.714Z,11.67
2018-04-12T16:09:27.468Z,13.37
2018-04-12T16:11:54.999Z,12.80
2018-04-12T16:14:22.520Z,12.30
2018-04-12T16:16:50.016Z,12.90
2018-04-12T16:19:17.537Z,13.37
2018-04-12T16:21:45.061Z,12.47
2018-04-12T16:24:12.707Z,12.77
2018-04-12T16:26:40.231Z,12.27
2018-04-12T16:29:08.688Z,12.90
2018-04-12T16:31:36.172Z,12.30
2018-04-12T16:34:04.476Z,12.27
2018-04-12T16:36:31.992Z,13.20
2018-04-12T16:39:00.457Z,11.23
2018-04-12T16:41:30.494Z,11.40
2018-04-12T16:43:58.985Z,11.60
2018-04-12T16:46:27.363Z,12.07
2018-04-12T16:48:55.673Z,11.27
2018-04-12T16:51:23.153Z,13.93
2018-04-12T16:53:50.667Z,12.13
2018-04-12T16:56:18.226Z,13.17
2018-04-12T16:58:45.809Z,15.07
2018-04-12T17:01:13.289Z,13.63
2018-04-12T17:03:40.901Z,14.63
2018-04-12T17:06:08.416Z,15.17
2018-04-12T17:08:35.927Z,14.87
2018-04-12T17:11:03.466Z,15.77
2018-04-12T17:13:31.858Z,15.70
2018-04-12T17:16:00.433Z,16.50
2018-04-12T17:18:28.171Z,14.00
2018-04-12T17:20:56.591Z,14.47
2018-04-12T17:23:24.338Z,15.57
2018-04-12T17:25:53.412Z,16.30
2018-04-12T17:28:21.702Z,14.57
2018-04-12T17:30:50.047Z,13.70
2018-04-12T17:33:17.662Z,15.27
2018-04-12T17:35:45.629Z,14.57
2018-04-12T17:38:13.941Z,15.33
2018-04-12T17:40:41.487Z,14.50
2018-04-12T17:43:08.995Z,14.10
2018-04-12T17:45:37.329Z,13.80
2018-04-12T17:48:05.226Z,14.73
2018-04-12T17:50:32.851Z,13.00
2018-04-12T17:53:00.329Z,14.53
2018-04-12T17:55:27.841Z,14.10
2018-04-12T17:57:55.398Z,13.10
2018-04-12T18:00:23.747Z,14.03
2018-04-12T18:02:51.289Z,17.87
2018-04-12T18:05:18.839Z,17.93
2018-04-12T18:07:46.379Z,15.93
2018-04-12T18:10:13.941Z,14.90
2018-04-12T18:12:41.507Z,14.33
2018-04-12T18:15:09.005Z,14.73
2018-04-12T18:17:36.523Z,19.53
2018-04-12T18:20:04.057Z,15.70
2018-04-12T18:22:31.584Z,16.17
2018-04-12T18:24:59.887Z,17.40
2018-04-12T18:27:28.218Z,15.80
2018-04-12T18:29:55.841Z,17.57
2018-04-12T18:32:23.377Z,16.10
2018-04-12T18:34:52.461Z,16.50
2018-04-12T18:37:20.861Z,17.70
2018-04-12T18:39:48.387Z,16.30
2018-04-12T18:42:15.953Z,19.50
2018-04-12T18:44:44.289Z,15.07
2018-04-12T18:47:11.811Z,14.43
2018-04-12T18:49:39.409Z,16.03
2018-04-12T18:52:06.901Z,13.50
2018-04-12T18:54:35.304Z,24.07
2018-04-12T18:57:03.595Z,14.43
2018-04-12T18:59:31.137Z,18.90
2018-04-12T19:01:59.415Z,17.10
2018-04-12T19:04:27.689Z,21.13
2018-04-12T19:06:56.002Z,20.23
2018-04-12T19:09:23.502Z,24.03
2018-04-12T19:11:51.030Z,18.23
2018-04-12T19:14:18.573Z,18.27
2018-04-12T19:16:46.923Z,13.90
2018-04-12T19:19:15.331Z,15.50
2018-04-12T19:21:42.959Z,13.50
2018-04-12T19:24:11.274Z,13.20
2018-04-12T19:26:38.790Z,13.87
2018-04-12T19:29:07.789Z,12.83
2018-04-12T19:31:36.088Z,12.93
2018-04-12T19:34:03.611Z,11.73
2018-04-12T19:36:31.197Z,11.43
2018-04-12T19:38:59.484Z,12.10
2018-04-12T19:41:27.036Z,12.10
2018-04-12T19:43:54.569Z,11.20
2018-04-12T19:46:22.140Z,12.73
2018-04-12T19:48:49.645Z,13.90
2018-04-12T19:51:17.184Z,13.30
2018-04-12T19:53:44.713Z,13.20
2018-04-12T19:56:13.045Z,12.40
2018-04-12T19:58:40.579Z,12.90
2018-04-12T20:01:08.117Z,12.27
2018-04-12T20:03:35.728Z,13.07
2018-04-12T20:06:03.588Z,12.97
2018-04-12T20:08:31.105Z,13.63
2018-04-12T20:10:58.836Z,12.97
2018-04-12T20:13:26.280Z,12.77
2018-04-12T20:15:53.815Z,13.30
2018-04-12T20:18:21.470Z,15.50
2018-04-12T20:20:48.994Z,14.37
2018-04-12T20:23:16.642Z,14.80
2018-04-12T20:25:44.209Z,13.87
2018-04-12T20:28:12.498Z,14.23
2018-04-12T20:30:40.018Z,14.73
2018-04-12T20:33:07.525Z,13.70
2018-04-12T20:35:35.009Z,12.50
2018-04-12T20:38:02.792Z,12.60
2018-04-12T20:40:30.325Z,12.43
2018-04-12T20:42:57.835Z,13.83
2018-04-12T20:45:26.123Z,13.10
2018-04-12T20:47:54.508Z,14.10
2018-04-12T20:50:22.834Z,14.63
2018-04-12T20:52:50.317Z,14.10
2018-04-12T20:55:18.619Z,13.50
2018-04-12T20:57:46.136Z,12.17
2018-04-12T21:00:13.702Z,12.17
2018-04-12T21:02:41.224Z,13.40
2018-04-12T21:05:08.765Z,12.93
2018-04-12T21:07:36.320Z,12.80
2018-04-12T21:10:03.819Z,13.57
2018-04-12T21:12:31.341Z,12.47
2018-04-12T21:14:58.886Z,11.40
2018-04-12T21:17:26.415Z,13.50
2018-04-12T21:19:53.975Z,13.00
2018-04-12T21:22:21.513Z,14.73
2018-04-12T21:24:49.033Z,14.20
2018-04-12T21:27:16.574Z,12.97
2018-04-12T21:29:44.948Z,14.60
2018-04-12T21:32:13.250Z,16.50
2018-04-12T21:34:40.792Z,15.30
2018-04-12T21:37:09.062Z,16.60
2018-04-12T21:39:37.366Z,13.73
2018-04-12T21:42:04.909Z,17.17
2018-04-12T21:44:33.332Z,18.43
2018-04-12T21:47:00.879Z,16.40
2018-04-12T21:49:28.424Z,13.20
2018-04-12T21:51:55.948Z,13.83
2018-04-12T21:54:24.280Z,12.13
2018-04-12T21:56:51.837Z,12.00
2018-04-12T21:59:19.358Z,12.70
2018-04-12T22:01:46.943Z,12.70
2018-04-12T22:04:14.433Z,12.47
2018-04-12T22:06:41.960Z,13.40
2018-04-12T22:09:09.522Z,12.23
2018-04-12T22:11:37.048Z,11.93
2018-04-12T22:14:05.432Z,12.20
2018-04-12T22:16:33.147Z,12.53
2018-04-12T22:19:00.679Z,14.10
2018-04-12T22:21:28.189Z,12.00
2018-04-12T22:23:55.750Z,12.53
2018-04-12T22:26:23.258Z,14.37
2018-04-12T22:28:50.885Z,14.30
2018-04-12T22:31:19.167Z,14.43
2018-04-12T22:33:47.482Z,17.03
2018-04-12T22:36:14.969Z,16.50
2018-04-12T22:38:42.557Z,15.90
2018-04-12T22:41:10.835Z,14.80
2018-04-12T22:43:39.221Z,15.37
2018-04-12T22:46:06.726Z,16.40
2018-04-12T22:48:34.231Z,16.27
2018-04-12T22:51:02.547Z,15.67
2018-04-12T22:53:30.064Z,16.47
2018-04-12T22:55:58.444Z,23.60
2018-04-12T22:58:26.727Z,13.53
2018-04-12T23:00:54.312Z,11.50
2018-04-12T23:03:21.804Z,11.00
2018-04-12T23:05:49.398Z,11.60
2018-04-12T23:08:18.154Z,10.57
2018-04-12T23:10:45.949Z,11.83
2018-04-12T23:13:14.224Z,13.10
2018-04-12T23:15:42.552Z,13.57
2018-04-12T23:18:10.071Z,14.30
2018-04-12T23:20:37.573Z,13.73
2018-04-12T23:23:05.369Z,13.80
2018-04-12T23:25:33.644Z,13.13
2018-04-12T23:28:01.214Z,15.10
2018-04-12T23:30:29.482Z,17.23
2018-04-12T23:32:57.785Z,12.83
2018-04-12T23:35:25.311Z,15.83
2018-04-12T23:37:52.814Z,15.63
2018-04-12T23:40:20.344Z,14.77
2018-04-12T23:42:48.617Z,17.10
2018-04-12T23:45:16.880Z,10.43
2018-04-12T23:47:44.390Z,11.53
2018-04-12T23:50:11.947Z,10.17
2018-04-12T23:52:39.461Z,9.90
2018-04-12T23:55:07.756Z,9.03
2018-04-12T23:57:35.264Z,9.27
